< < Back
Terminal Aerodrome Forecast


Current Version              Previous Versions:   1  2  3  4  5  6  7  8  9  

Terminal Aerodrome Forecast

393
FTUS44 KBMX 162300
TAFANB
TAF
KANB 162334Z 1700/1724 34004KT P6SM SCT050 SCT100
     FM171000 33004KT P6SM SCT020 BKN040
      TEMPO 1710/1713 5SM BR
     FM171400 31006KT P6SM SCT250=

Latest METAR

737
SAUS70 KWBC 170300 RRA
MTRANB
METAR KANB 170253Z AUTO 00000KT 7SM CLR 22/21 A3001 RMK AO2 SLP153
T02220211 51009


USA.gov is the U.S. government's official web portal to all federal, state and local government web resources and services.